EYPA/PLQ METAR and TAF weather

Enter ICAO airport designator
Station Type Date Time Source
EYPA METAR 2019/10/21 22:59 UTC NOAA

EYPA 212259Z AUTO VRB02KT 9999 SCT100/// BKN140/// BKN170/// 12/11 Q1020


Station Type Date Time Source
EYPA Decoded METAR 2019/10/21 22:59 UTC NOAA

Palanga Intl., Lithuania (EYPA) 55-55-12N 021-03E
Oct 21, 2019 - 06:59 PM EDT / 2019.10.21 2259 UTC
Wind: Variable at 2 MPH (2 KT):0
Visibility: greater than 7 mile(s):0
Sky conditions: mostly cloudy
Temperature: 53 F (12 C)
Dew Point: 51 F (11 C)
Relative Humidity: 93%
Pressure (altimeter): 30.12 in. Hg (1020 hPa)
ob: EYPA 212259Z AUTO VRB02KT 9999 SCT100/// BKN140/// BKN170/// 12/11 Q1020
cycle: 23

Station Type Date Time Source
EYPA TAF 2019/10/21 18:09 UTC NOAA

TAF TAF EYPA 211707Z 2118/2218 VRB04KT 5000 BR SCT015
TEMPO 2118/2121 -SHRA SCT005 BKN012CB
TEMPO 2121/2124 0500 FG VV002
BECMG 2200/2201 1500 BKN005
TEMPO 2201/2207 0400 FG VV002
BECMG 2207/2209 25014KT 7000 BKN015

Example: see airport list